Airport Name : Pafos Intl

Other Name : Pafos Intl

ICAO : LCPH

IATA : PFO

FAA :

Latitude : 34.718039

Longitude : 32.485731

Country : Cyprus

Local Date and Time : 1/17/2019 6:12:00 PM

 

TAF (Terminal Aerodrome Forecast)

TAF LCPH 171130Z 1712/1812 34007KT 9999 FEW025

 

METAR (METeorological Aerodrome Report)

LCPH 171600Z 33005KT 9999 FEW020 09/03 Q1020

LCPH 171530Z 32005KT 9999 FEW020 10/04 Q1019

LCPH 171500Z 31008KT 9999 FEW035 12/03 Q1019

LCPH 171430Z 30009KT 9999 FEW035 14/03 Q1019

LCPH 171400Z 29012KT 9999 FEW035 14/03 Q1019

LCPH 171330Z 30010KT 9999 FEW035 15/04 Q1019

LCPH 171300Z 28010KT 9999 FEW035 15/03 Q1019

LCPH 171230Z 28008KT 9999 FEW025 15/04 Q1019